Vilhena, Vilhena Airport (SBVH)

NameVilhena Airport
CityVilhena
CountryBrazil
ICAOSBVH
IATABVH
Altitude615 m
CoordinatesGoogle Map
Live Air TrafficLiveATC.net
METARSBVH 251700Z 01007KT 060V150 9999 BKN025 29/23 Q1016
2020-04-25 17:00:00 Wind: North (10°) 3.6 m/s - Visibility: > 10000 m - Temperature: 29 °C - Dew point: 23 °C - Humidity: 70.1% - Pressure: 1016 hPa

Sorry, no flights used the airport in this database.